sensor_id;sensor_type;location;lat;lon;timestamp;P1;durP1;ratioP1;P2;durP2;ratioP2
5137;SDS011;53959;53.626;11.410;2023-04-01T00:00:27;12.07;;;9.20;;
5137;SDS011;53959;53.626;11.410;2023-04-01T00:02:52;11.43;;;8.97;;
5137;SDS011;53959;53.626;11.410;2023-04-01T00:05:17;12.70;;;9.60;;
5137;SDS011;53959;53.626;11.410;2023-04-01T00:07:43;14.00;;;10.17;;
5137;SDS011;53959;53.626;11.410;2023-04-01T00:10:10;12.63;;;9.30;;
5137;SDS011;53959;53.626;11.410;2023-04-01T00:12:37;14.33;;;9.30;;
5137;SDS011;53959;53.626;11.410;2023-04-01T00:15:03;11.17;;;8.90;;
5137;SDS011;53959;53.626;11.410;2023-04-01T00:17:30;15.30;;;9.83;;
5137;SDS011;53959;53.626;11.410;2023-04-01T00:19:55;11.33;;;8.57;;
5137;SDS011;53959;53.626;11.410;2023-04-01T00:22:22;15.80;;;9.83;;
5137;SDS011;53959;53.626;11.410;2023-04-01T00:24:48;12.23;;;8.40;;
5137;SDS011;53959;53.626;11.410;2023-04-01T00:27:14;18.40;;;8.20;;
5137;SDS011;53959;53.626;11.410;2023-04-01T00:29:44;14.03;;;9.20;;
5137;SDS011;53959;53.626;11.410;2023-04-01T00:32:10;13.00;;;8.03;;
5137;SDS011;53959;53.626;11.410;2023-04-01T00:34:36;9.60;;;8.00;;
5137;SDS011;53959;53.626;11.410;2023-04-01T00:37:03;13.93;;;8.37;;
5137;SDS011;53959;53.626;11.410;2023-04-01T00:39:29;12.33;;;7.73;;
5137;SDS011;53959;53.626;11.410;2023-04-01T00:41:55;11.77;;;8.30;;
5137;SDS011;53959;53.626;11.410;2023-04-01T00:44:26;9.77;;;7.33;;
5137;SDS011;53959;53.626;11.410;2023-04-01T00:46:53;14.40;;;8.70;;
5137;SDS011;53959;53.626;11.410;2023-04-01T00:49:19;13.10;;;8.67;;
5137;SDS011;53959;53.626;11.410;2023-04-01T00:51:48;15.00;;;7.80;;
5137;SDS011;53959;53.626;11.410;2023-04-01T00:54:17;9.67;;;8.07;;
5137;SDS011;53959;53.626;11.410;2023-04-01T00:56:46;11.33;;;8.00;;
5137;SDS011;53959;53.626;11.410;2023-04-01T00:59:19;11.00;;;7.50;;
5137;SDS011;53959;53.626;11.410;2023-04-01T01:01:49;13.80;;;8.60;;
5137;SDS011;53959;53.626;11.410;2023-04-01T01:04:20;12.40;;;8.90;;
5137;SDS011;53959;53.626;11.410;2023-04-01T01:12:39;14.97;;;8.80;;
5137;SDS011;53959;53.626;11.410;2023-04-01T01:15:20;16.13;;;9.40;;
5137;SDS011;53959;53.626;11.410;2023-04-01T01:17:54;22.13;;;10.17;;
5137;SDS011;53959;53.626;11.410;2023-04-01T01:26:42;19.53;;;10.17;;
5137;SDS011;53959;53.626;11.410;2023-04-01T01:35:24;20.40;;;12.13;;
5137;SDS011;53959;53.626;11.410;2023-04-01T01:38:02;15.97;;;11.30;;
5137;SDS011;53959;53.626;11.410;2023-04-01T01:40:31;9.90;;;7.57;;
5137;SDS011;53959;53.626;11.410;2023-04-01T01:43:00;6.97;;;5.70;;
5137;SDS011;53959;53.626;11.410;2023-04-01T01:45:30;4.50;;;4.10;;
5137;SDS011;53959;53.626;11.410;2023-04-01T01:47:58;9.17;;;4.10;;
5137;SDS011;53959;53.626;11.410;2023-04-01T01:50:28;3.30;;;3.10;;
5137;SDS011;53959;53.626;11.410;2023-04-01T01:53:27;4.40;;;4.00;;
5137;SDS011;53959;53.626;11.410;2023-04-01T01:55:46;4.07;;;3.57;;
5137;SDS011;53959;53.626;11.410;2023-04-01T02:00:41;4.20;;;3.80;;
5137;SDS011;53959;53.626;11.410;2023-04-01T02:03:10;4.00;;;3.27;;
5137;SDS011;53959;53.626;11.410;2023-04-01T02:05:38;5.50;;;4.60;;
5137;SDS011;53959;53.626;11.410;2023-04-01T02:08:08;4.90;;;4.10;;
5137;SDS011;53959;53.626;11.410;2023-04-01T02:10:39;10.03;;;3.70;;
5137;SDS011;53959;53.626;11.410;2023-04-01T02:13:14;6.00;;;3.60;;
5137;SDS011;53959;53.626;11.410;2023-04-01T02:15:44;6.07;;;4.40;;
5137;SDS011;53959;53.626;11.410;2023-04-01T02:18:14;2.97;;;2.77;;
5137;SDS011;53959;53.626;11.410;2023-04-01T02:20:40;3.90;;;3.60;;
5137;SDS011;53959;53.626;11.410;2023-04-01T02:23:07;4.50;;;3.60;;
5137;SDS011;53959;53.626;11.410;2023-04-01T02:25:35;5.00;;;3.97;;
5137;SDS011;53959;53.626;11.410;2023-04-01T02:28:03;5.50;;;3.40;;
5137;SDS011;53959;53.626;11.410;2023-04-01T02:30:31;5.10;;;4.50;;
5137;SDS011;53959;53.626;11.410;2023-04-01T02:32:59;4.67;;;4.13;;
5137;SDS011;53959;53.626;11.410;2023-04-01T02:35:25;3.87;;;3.57;;
5137;SDS011;53959;53.626;11.410;2023-04-01T02:37:52;4.80;;;4.40;;
5137;SDS011;53959;53.626;11.410;2023-04-01T02:40:19;4.93;;;4.53;;
5137;SDS011;53959;53.626;11.410;2023-04-01T02:42:45;5.13;;;4.33;;
5137;SDS011;53959;53.626;11.410;2023-04-01T02:45:11;6.67;;;4.77;;
5137;SDS011;53959;53.626;11.410;2023-04-01T02:47:37;3.70;;;3.37;;
5137;SDS011;53959;53.626;11.410;2023-04-01T02:50:03;4.47;;;3.40;;
5137;SDS011;53959;53.626;11.410;2023-04-01T02:52:29;4.07;;;3.70;;
5137;SDS011;53959;53.626;11.410;2023-04-01T02:54:58;4.27;;;3.90;;
5137;SDS011;53959;53.626;11.410;2023-04-01T02:57:23;3.30;;;3.10;;
5137;SDS011;53959;53.626;11.410;2023-04-01T02:59:49;3.50;;;3.13;;
5137;SDS011;53959;53.626;11.410;2023-04-01T03:02:15;3.50;;;3.20;;
5137;SDS011;53959;53.626;11.410;2023-04-01T03:04:42;2.77;;;2.57;;
5137;SDS011;53959;53.626;11.410;2023-04-01T03:07:08;4.23;;;3.10;;
5137;SDS011;53959;53.626;11.410;2023-04-01T03:09:35;2.43;;;2.33;;
5137;SDS011;53959;53.626;11.410;2023-04-01T03:12:01;3.80;;;3.47;;
5137;SDS011;53959;53.626;11.410;2023-04-01T03:14:27;4.43;;;3.30;;
5137;SDS011;53959;53.626;11.410;2023-04-01T03:16:52;3.67;;;3.37;;
5137;SDS011;53959;53.626;11.410;2023-04-01T03:19:18;6.10;;;3.43;;
5137;SDS011;53959;53.626;11.410;2023-04-01T03:21:44;4.17;;;3.20;;
5137;SDS011;53959;53.626;11.410;2023-04-01T03:24:09;5.80;;;4.10;;
5137;SDS011;53959;53.626;11.410;2023-04-01T03:26:35;4.67;;;4.17;;
5137;SDS011;53959;53.626;11.410;2023-04-01T03:29:00;12.47;;;5.20;;
5137;SDS011;53959;53.626;11.410;2023-04-01T03:31:26;4.83;;;4.33;;
5137;SDS011;53959;53.626;11.410;2023-04-01T03:33:54;4.67;;;4.20;;
5137;SDS011;53959;53.626;11.410;2023-04-01T03:36:21;4.63;;;4.17;;
5137;SDS011;53959;53.626;11.410;2023-04-01T03:38:46;4.20;;;3.63;;
5137;SDS011;53959;53.626;11.410;2023-04-01T03:41:16;3.93;;;3.63;;
5137;SDS011;53959;53.626;11.410;2023-04-01T03:43:43;5.13;;;3.83;;
5137;SDS011;53959;53.626;11.410;2023-04-01T03:46:09;5.00;;;3.67;;
5137;SDS011;53959;53.626;11.410;2023-04-01T03:48:34;3.70;;;3.40;;
5137;SDS011;53959;53.626;11.410;2023-04-01T03:51:00;4.40;;;3.40;;
5137;SDS011;53959;53.626;11.410;2023-04-01T03:53:26;4.37;;;3.60;;
5137;SDS011;53959;53.626;11.410;2023-04-01T03:55:55;4.53;;;4.13;;
5137;SDS011;53959;53.626;11.410;2023-04-01T03:58:20;4.47;;;4.07;;
5137;SDS011;53959;53.626;11.410;2023-04-01T04:00:46;5.20;;;3.33;;
5137;SDS011;53959;53.626;11.410;2023-04-01T04:03:11;4.10;;;3.77;;
5137;SDS011;53959;53.626;11.410;2023-04-01T04:05:37;2.90;;;2.70;;
5137;SDS011;53959;53.626;11.410;2023-04-01T04:08:03;2.73;;;2.53;;
5137;SDS011;53959;53.626;11.410;2023-04-01T04:10:30;5.10;;;3.47;;
5137;SDS011;53959;53.626;11.410;2023-04-01T04:12:55;2.23;;;2.13;;
5137;SDS011;53959;53.626;11.410;2023-04-01T04:15:23;2.90;;;2.50;;
5137;SDS011;53959;53.626;11.410;2023-04-01T04:17:48;2.00;;;1.90;;
5137;SDS011;53959;53.626;11.410;2023-04-01T04:20:14;2.40;;;2.23;;
5137;SDS011;53959;53.626;11.410;2023-04-01T04:22:40;2.20;;;2.10;;
5137;SDS011;53959;53.626;11.410;2023-04-01T04:25:07;2.07;;;1.97;;
5137;SDS011;53959;53.626;11.410;2023-04-01T04:27:33;1.63;;;1.60;;
5137;SDS011;53959;53.626;11.410;2023-04-01T04:30:06;1.97;;;1.97;;
5137;SDS011;53959;53.626;11.410;2023-04-01T04:32:32;2.13;;;1.80;;
5137;SDS011;53959;53.626;11.410;2023-04-01T04:34:58;2.10;;;2.00;;
5137;SDS011;53959;53.626;11.410;2023-04-01T04:37:24;1.87;;;1.87;;
5137;SDS011;53959;53.626;11.410;2023-04-01T04:39:51;1.93;;;1.83;;
5137;SDS011;53959;53.626;11.410;2023-04-01T04:42:16;1.73;;;1.60;;
5137;SDS011;53959;53.626;11.410;2023-04-01T04:44:42;2.10;;;1.90;;
5137;SDS011;53959;53.626;11.410;2023-04-01T04:47:08;2.60;;;2.40;;
5137;SDS011;53959;53.626;11.410;2023-04-01T04:49:34;1.73;;;1.63;;
5137;SDS011;53959;53.626;11.410;2023-04-01T04:52:05;1.80;;;1.70;;
5137;SDS011;53959;53.626;11.410;2023-04-01T04:54:30;2.37;;;2.17;;
5137;SDS011;53959;53.626;11.410;2023-04-01T04:56:57;2.00;;;1.80;;
5137;SDS011;53959;53.626;11.410;2023-04-01T04:59:25;1.80;;;1.70;;
5137;SDS011;53959;53.626;11.410;2023-04-01T05:02:26;1.80;;;1.80;;
5137;SDS011;53959;53.626;11.410;2023-04-01T05:04:51;3.07;;;2.00;;
5137;SDS011;53959;53.626;11.410;2023-04-01T05:07:17;1.80;;;1.70;;
5137;SDS011;53959;53.626;11.410;2023-04-01T05:09:42;2.20;;;1.77;;
5137;SDS011;53959;53.626;11.410;2023-04-01T05:12:08;2.17;;;1.80;;
5137;SDS011;53959;53.626;11.410;2023-04-01T05:14:52;2.20;;;1.63;;
5137;SDS011;53959;53.626;11.410;2023-04-01T05:17:17;2.43;;;1.77;;
5137;SDS011;53959;53.626;11.410;2023-04-01T05:19:42;1.77;;;1.67;;
5137;SDS011;53959;53.626;11.410;2023-04-01T05:22:08;6.07;;;2.47;;
5137;SDS011;53959;53.626;11.410;2023-04-01T05:24:34;3.20;;;2.67;;
5137;SDS011;53959;53.626;11.410;2023-04-01T05:27:00;2.60;;;2.10;;
5137;SDS011;53959;53.626;11.410;2023-04-01T05:29:26;1.53;;;1.50;;
5137;SDS011;53959;53.626;11.410;2023-04-01T05:31:58;1.50;;;1.43;;
5137;SDS011;53959;53.626;11.410;2023-04-01T05:34:24;1.20;;;1.10;;
5137;SDS011;53959;53.626;11.410;2023-04-01T05:36:49;2.10;;;1.40;;
5137;SDS011;53959;53.626;11.410;2023-04-01T05:39:16;1.30;;;1.30;;
5137;SDS011;53959;53.626;11.410;2023-04-01T05:41:41;1.77;;;1.70;;
5137;SDS011;53959;53.626;11.410;2023-04-01T05:44:07;1.37;;;1.37;;
5137;SDS011;53959;53.626;11.410;2023-04-01T05:46:55;1.63;;;1.63;;
5137;SDS011;53959;53.626;11.410;2023-04-01T05:49:23;2.00;;;1.90;;
5137;SDS011;53959;53.626;11.410;2023-04-01T05:51:49;1.97;;;1.87;;
5137;SDS011;53959;53.626;11.410;2023-04-01T05:54:16;4.87;;;1.63;;
5137;SDS011;53959;53.626;11.410;2023-04-01T05:56:43;1.70;;;1.60;;
5137;SDS011;53959;53.626;11.410;2023-04-01T05:59:09;2.77;;;2.57;;
5137;SDS011;53959;53.626;11.410;2023-04-01T06:01:36;2.10;;;1.90;;
5137;SDS011;53959;53.626;11.410;2023-04-01T06:04:01;2.43;;;2.33;;
5137;SDS011;53959;53.626;11.410;2023-04-01T06:06:28;2.70;;;1.67;;
5137;SDS011;53959;53.626;11.410;2023-04-01T06:09:26;3.90;;;2.10;;
5137;SDS011;53959;53.626;11.410;2023-04-01T06:12:08;1.90;;;1.80;;
5137;SDS011;53959;53.626;11.410;2023-04-01T06:17:49;1.70;;;1.60;;
5137;SDS011;53959;53.626;11.410;2023-04-01T06:31:33;2.33;;;1.97;;
5137;SDS011;53959;53.626;11.410;2023-04-01T06:34:06;1.73;;;1.63;;
5137;SDS011;53959;53.626;11.410;2023-04-01T06:36:46;2.10;;;1.90;;
5137;SDS011;53959;53.626;11.410;2023-04-01T06:44:56;1.80;;;1.70;;
5137;SDS011;53959;53.626;11.410;2023-04-01T06:50:44;1.80;;;1.70;;
5137;SDS011;53959;53.626;11.410;2023-04-01T06:53:33;2.17;;;2.07;;
5137;SDS011;53959;53.626;11.410;2023-04-01T06:56:21;2.77;;;2.60;;
5137;SDS011;53959;53.626;11.410;2023-04-01T07:01:55;1.50;;;1.50;;
5137;SDS011;53959;53.626;11.410;2023-04-01T07:04:26;2.23;;;2.07;;
5137;SDS011;53959;53.626;11.410;2023-04-01T07:09:57;2.33;;;2.13;;
5137;SDS011;53959;53.626;11.410;2023-04-01T07:12:54;2.60;;;2.40;;
5137;SDS011;53959;53.626;11.410;2023-04-01T07:15:40;3.10;;;2.90;;
5137;SDS011;53959;53.626;11.410;2023-04-01T07:18:20;2.10;;;1.90;;
5137;SDS011;53959;53.626;11.410;2023-04-01T07:20:52;3.63;;;1.60;;
5137;SDS011;53959;53.626;11.410;2023-04-01T07:23:23;2.30;;;2.20;;
5137;SDS011;53959;53.626;11.410;2023-04-01T07:26:17;4.37;;;2.17;;
5137;SDS011;53959;53.626;11.410;2023-04-01T07:28:57;2.70;;;2.50;;
5137;SDS011;53959;53.626;11.410;2023-04-01T07:34:26;3.90;;;2.20;;
5137;SDS011;53959;53.626;11.410;2023-04-01T07:45:27;2.07;;;2.00;;
5137;SDS011;53959;53.626;11.410;2023-04-01T07:50:29;1.80;;;1.70;;
5137;SDS011;53959;53.626;11.410;2023-04-01T07:58:04;2.17;;;2.03;;
5137;SDS011;53959;53.626;11.410;2023-04-01T08:00:48;2.17;;;2.07;;
5137;SDS011;53959;53.626;11.410;2023-04-01T08:21:04;1.77;;;1.30;;
5137;SDS011;53959;53.626;11.410;2023-04-01T08:23:40;2.63;;;1.53;;
5137;SDS011;53959;53.626;11.410;2023-04-01T08:26:30;1.30;;;1.30;;
5137;SDS011;53959;53.626;11.410;2023-04-01T08:29:21;2.00;;;1.50;;
5137;SDS011;53959;53.626;11.410;2023-04-01T08:34:36;1.47;;;1.37;;
5137;SDS011;53959;53.626;11.410;2023-04-01T08:37:14;1.70;;;1.60;;
5137;SDS011;53959;53.626;11.410;2023-04-01T08:39:48;1.90;;;1.80;;
5137;SDS011;53959;53.626;11.410;2023-04-01T08:42:53;2.53;;;1.90;;
5137;SDS011;53959;53.626;11.410;2023-04-01T08:48:13;1.70;;;1.60;;
5137;SDS011;53959;53.626;11.410;2023-04-01T08:51:25;1.30;;;1.30;;
5137;SDS011;53959;53.626;11.410;2023-04-01T09:06:12;1.00;;;1.00;;
5137;SDS011;53959;53.626;11.410;2023-04-01T09:17:38;1.20;;;1.20;;
5137;SDS011;53959;53.626;11.410;2023-04-01T09:26:13;1.13;;;1.07;;
5137;SDS011;53959;53.626;11.410;2023-04-01T09:34:57;1.47;;;1.37;;
5137;SDS011;53959;53.626;11.410;2023-04-01T09:37:51;1.60;;;1.60;;
5137;SDS011;53959;53.626;11.410;2023-04-01T09:40:35;1.73;;;1.73;;
5137;SDS011;53959;53.626;11.410;2023-04-01T09:43:16;3.17;;;2.50;;
5137;SDS011;53959;53.626;11.410;2023-04-01T10:09:20;5.23;;;3.33;;
5137;SDS011;53959;53.626;11.410;2023-04-01T10:17:46;4.00;;;3.60;;
5137;SDS011;53959;53.626;11.410;2023-04-01T10:20:26;3.43;;;3.13;;
5137;SDS011;53959;53.626;11.410;2023-04-01T10:26:03;6.13;;;5.30;;
5137;SDS011;53959;53.626;11.410;2023-04-01T10:28:56;6.50;;;4.20;;
5137;SDS011;53959;53.626;11.410;2023-04-01T10:34:46;7.63;;;5.13;;
5137;SDS011;53959;53.626;11.410;2023-04-01T10:52:20;9.77;;;5.40;;
5137;SDS011;53959;53.626;11.410;2023-04-01T10:55:27;10.57;;;5.60;;
5137;SDS011;53959;53.626;11.410;2023-04-01T10:59:20;6.40;;;3.93;;
5137;SDS011;53959;53.626;11.410;2023-04-01T11:08:31;10.43;;;5.60;;
5137;SDS011;53959;53.626;11.410;2023-04-01T11:14:51;7.23;;;4.80;;
5137;SDS011;53959;53.626;11.410;2023-04-01T11:17:24;11.73;;;4.97;;
5137;SDS011;53959;53.626;11.410;2023-04-01T11:29:48;9.90;;;5.30;;
5137;SDS011;53959;53.626;11.410;2023-04-01T11:41:13;10.47;;;5.50;;
5137;SDS011;53959;53.626;11.410;2023-04-01T11:44:24;15.07;;;5.60;;
5137;SDS011;53959;53.626;11.410;2023-04-01T11:55:35;14.83;;;5.73;;
5137;SDS011;53959;53.626;11.410;2023-04-01T12:20:46;12.50;;;4.43;;
5137;SDS011;53959;53.626;11.410;2023-04-01T12:29:24;9.10;;;5.37;;
5137;SDS011;53959;53.626;11.410;2023-04-01T12:40:23;4.77;;;3.93;;
5137;SDS011;53959;53.626;11.410;2023-04-01T12:43:02;8.90;;;4.40;;
5137;SDS011;53959;53.626;11.410;2023-04-01T12:45:35;5.37;;;4.10;;
5137;SDS011;53959;53.626;11.410;2023-04-01T12:56:22;8.10;;;4.30;;
5137;SDS011;53959;53.626;11.410;2023-04-01T12:59:01;9.50;;;5.33;;
5137;SDS011;53959;53.626;11.410;2023-04-01T13:10:13;18.60;;;7.17;;
5137;SDS011;53959;53.626;11.410;2023-04-01T13:12:57;12.57;;;7.33;;
5137;SDS011;53959;53.626;11.410;2023-04-01T13:15:41;8.90;;;6.20;;
5137;SDS011;53959;53.626;11.410;2023-04-01T13:26:58;9.53;;;5.53;;
5137;SDS011;53959;53.626;11.410;2023-04-01T13:29:33;10.40;;;6.30;;
5137;SDS011;53959;53.626;11.410;2023-04-01T13:34:48;11.63;;;6.60;;
5137;SDS011;53959;53.626;11.410;2023-04-01T13:43:19;9.60;;;4.90;;
5137;SDS011;53959;53.626;11.410;2023-04-01T13:53:37;16.60;;;7.20;;
5137;SDS011;53959;53.626;11.410;2023-04-01T14:16:13;20.50;;;7.63;;
5137;SDS011;53959;53.626;11.410;2023-04-01T14:18:52;17.83;;;7.67;;
5137;SDS011;53959;53.626;11.410;2023-04-01T14:21:58;20.53;;;8.40;;
5137;SDS011;53959;53.626;11.410;2023-04-01T14:28:10;12.60;;;5.70;;
5137;SDS011;53959;53.626;11.410;2023-04-01T14:30:59;25.10;;;8.03;;
5137;SDS011;53959;53.626;11.410;2023-04-01T14:50:11;15.00;;;6.50;;
5137;SDS011;53959;53.626;11.410;2023-04-01T14:52:42;15.17;;;7.10;;
5137;SDS011;53959;53.626;11.410;2023-04-01T14:55:34;11.10;;;6.20;;
5137;SDS011;53959;53.626;11.410;2023-04-01T15:12:07;9.87;;;5.73;;
5137;SDS011;53959;53.626;11.410;2023-04-01T15:17:43;13.63;;;5.87;;
5137;SDS011;53959;53.626;11.410;2023-04-01T15:32:01;15.03;;;5.40;;
5137;SDS011;53959;53.626;11.410;2023-04-01T15:37:31;6.10;;;4.50;;
5137;SDS011;53959;53.626;11.410;2023-04-01T15:45:51;11.27;;;4.37;;
5137;SDS011;53959;53.626;11.410;2023-04-01T15:52:05;20.50;;;4.70;;
5137;SDS011;53959;53.626;11.410;2023-04-01T15:54:56;16.10;;;5.33;;
5137;SDS011;53959;53.626;11.410;2023-04-01T16:01:04;5.67;;;4.07;;
5137;SDS011;53959;53.626;11.410;2023-04-01T16:15:29;9.33;;;5.20;;
5137;SDS011;53959;53.626;11.410;2023-04-01T16:18:18;11.03;;;3.93;;
5137;SDS011;53959;53.626;11.410;2023-04-01T16:21:04;13.87;;;5.00;;
5137;SDS011;53959;53.626;11.410;2023-04-01T16:23:55;13.50;;;4.67;;
5137;SDS011;53959;53.626;11.410;2023-04-01T16:31:42;7.00;;;5.10;;
5137;SDS011;53959;53.626;11.410;2023-04-01T16:37:09;6.67;;;5.70;;
5137;SDS011;53959;53.626;11.410;2023-04-01T16:39:43;14.73;;;5.50;;
5137;SDS011;53959;53.626;11.410;2023-04-01T16:47:49;5.80;;;4.20;;
5137;SDS011;53959;53.626;11.410;2023-04-01T16:50:20;6.50;;;4.90;;
5137;SDS011;53959;53.626;11.410;2023-04-01T16:53:02;4.70;;;4.30;;
5137;SDS011;53959;53.626;11.410;2023-04-01T16:58:35;4.47;;;4.07;;
5137;SDS011;53959;53.626;11.410;2023-04-01T17:01:02;10.90;;;4.60;;
5137;SDS011;53959;53.626;11.410;2023-04-01T17:03:38;5.00;;;4.10;;
5137;SDS011;53959;53.626;11.410;2023-04-01T17:06:19;11.33;;;5.40;;
5137;SDS011;53959;53.626;11.410;2023-04-01T17:11:27;5.00;;;4.13;;
5137;SDS011;53959;53.626;11.410;2023-04-01T17:25:48;5.90;;;3.97;;
5137;SDS011;53959;53.626;11.410;2023-04-01T17:28:32;5.63;;;3.80;;
5137;SDS011;53959;53.626;11.410;2023-04-01T17:36:41;4.20;;;3.53;;
5137;SDS011;53959;53.626;11.410;2023-04-01T17:39:34;4.03;;;3.07;;
5137;SDS011;53959;53.626;11.410;2023-04-01T17:42:15;6.53;;;3.73;;
5137;SDS011;53959;53.626;11.410;2023-04-01T17:44:56;9.70;;;3.83;;
5137;SDS011;53959;53.626;11.410;2023-04-01T17:50:45;5.53;;;3.90;;
5137;SDS011;53959;53.626;11.410;2023-04-01T17:53:17;9.00;;;3.90;;
5137;SDS011;53959;53.626;11.410;2023-04-01T17:56:09;9.90;;;2.97;;
5137;SDS011;53959;53.626;11.410;2023-04-01T17:58:58;11.63;;;3.90;;
5137;SDS011;53959;53.626;11.410;2023-04-01T18:10:04;9.60;;;3.10;;
5137;SDS011;53959;53.626;11.410;2023-04-01T18:26:50;8.00;;;3.90;;
5137;SDS011;53959;53.626;11.410;2023-04-01T18:29:31;6.30;;;3.47;;
5137;SDS011;53959;53.626;11.410;2023-04-01T18:32:12;3.63;;;2.97;;
5137;SDS011;53959;53.626;11.410;2023-04-01T18:51:32;12.33;;;3.50;;
5137;SDS011;53959;53.626;11.410;2023-04-01T18:54:16;9.60;;;3.07;;
5137;SDS011;53959;53.626;11.410;2023-04-01T18:56:49;7.30;;;2.57;;
5137;SDS011;53959;53.626;11.410;2023-04-01T19:02:32;5.30;;;2.60;;
5137;SDS011;53959;53.626;11.410;2023-04-01T19:07:44;8.13;;;2.40;;
5137;SDS011;53959;53.626;11.410;2023-04-01T19:21:35;4.30;;;2.40;;
5137;SDS011;53959;53.626;11.410;2023-04-01T19:32:42;4.30;;;2.67;;
5137;SDS011;53959;53.626;11.410;2023-04-01T19:37:45;7.30;;;2.03;;
5137;SDS011;53959;53.626;11.410;2023-04-01T19:40:32;11.70;;;2.00;;
5137;SDS011;53959;53.626;11.410;2023-04-01T19:46:19;5.13;;;1.60;;
5137;SDS011;53959;53.626;11.410;2023-04-01T19:51:27;1.77;;;1.17;;
5137;SDS011;53959;53.626;11.410;2023-04-01T19:54:04;2.33;;;1.30;;
5137;SDS011;53959;53.626;11.410;2023-04-01T19:57:00;2.70;;;1.73;;
5137;SDS011;53959;53.626;11.410;2023-04-01T20:02:26;9.30;;;1.53;;
5137;SDS011;53959;53.626;11.410;2023-04-01T20:05:04;5.20;;;1.30;;
5137;SDS011;53959;53.626;11.410;2023-04-01T20:07:51;10.63;;;1.37;;
5137;SDS011;53959;53.626;11.410;2023-04-01T20:13:33;7.97;;;1.77;;
5137;SDS011;53959;53.626;11.410;2023-04-01T20:16:46;6.33;;;1.60;;
5137;SDS011;53959;53.626;11.410;2023-04-01T20:19:34;1.77;;;1.50;;
5137;SDS011;53959;53.626;11.410;2023-04-01T20:22:05;8.07;;;1.57;;
5137;SDS011;53959;53.626;11.410;2023-04-01T20:24:41;8.03;;;1.40;;
5137;SDS011;53959;53.626;11.410;2023-04-01T20:29:41;5.80;;;1.80;;
5137;SDS011;53959;53.626;11.410;2023-04-01T20:41:23;2.87;;;1.57;;
5137;SDS011;53959;53.626;11.410;2023-04-01T20:57:30;4.00;;;1.70;;
5137;SDS011;53959;53.626;11.410;2023-04-01T21:08:24;7.00;;;1.90;;
5137;SDS011;53959;53.626;11.410;2023-04-01T21:11:20;5.03;;;1.30;;
5137;SDS011;53959;53.626;11.410;2023-04-01T21:16:54;12.47;;;2.10;;
5137;SDS011;53959;53.626;11.410;2023-04-01T21:31:02;7.00;;;1.60;;
5137;SDS011;53959;53.626;11.410;2023-04-01T21:33:42;7.53;;;1.83;;
5137;SDS011;53959;53.626;11.410;2023-04-01T21:42:14;3.37;;;1.40;;
5137;SDS011;53959;53.626;11.410;2023-04-01T21:44:55;8.17;;;1.93;;
5137;SDS011;53959;53.626;11.410;2023-04-01T22:00:48;7.83;;;1.40;;
5137;SDS011;53959;53.626;11.410;2023-04-01T22:03:37;2.77;;;1.37;;
5137;SDS011;53959;53.626;11.410;2023-04-01T22:06:32;5.07;;;1.30;;
5137;SDS011;53959;53.626;11.410;2023-04-01T22:09:18;12.40;;;2.43;;
5137;SDS011;53959;53.626;11.410;2023-04-01T22:11:58;3.70;;;1.20;;
5137;SDS011;53959;53.626;11.410;2023-04-01T22:14:38;6.40;;;1.87;;
5137;SDS011;53959;53.626;11.410;2023-04-01T22:17:32;6.63;;;1.60;;
5137;SDS011;53959;53.626;11.410;2023-04-01T22:31:14;6.10;;;2.70;;
5137;SDS011;53959;53.626;11.410;2023-04-01T22:36:40;7.30;;;1.60;;
5137;SDS011;53959;53.626;11.410;2023-04-01T22:39:23;5.93;;;1.80;;
5137;SDS011;53959;53.626;11.410;2023-04-01T22:43:01;8.43;;;1.57;;
5137;SDS011;53959;53.626;11.410;2023-04-01T22:50:13;9.07;;;2.03;;
5137;SDS011;53959;53.626;11.410;2023-04-01T22:52:46;4.70;;;1.63;;
5137;SDS011;53959;53.626;11.410;2023-04-01T22:55:26;9.40;;;2.17;;
5137;SDS011;53959;53.626;11.410;2023-04-01T22:57:58;5.43;;;1.50;;
5137;SDS011;53959;53.626;11.410;2023-04-01T23:00:34;12.90;;;1.50;;
5137;SDS011;53959;53.626;11.410;2023-04-01T23:03:11;6.43;;;2.10;;
5137;SDS011;53959;53.626;11.410;2023-04-01T23:05:55;6.07;;;1.67;;
5137;SDS011;53959;53.626;11.410;2023-04-01T23:11:41;3.30;;;1.27;;
5137;SDS011;53959;53.626;11.410;2023-04-01T23:16:48;9.20;;;1.40;;
5137;SDS011;53959;53.626;11.410;2023-04-01T23:24:53;9.53;;;1.43;;
5137;SDS011;53959;53.626;11.410;2023-04-01T23:27:28;6.37;;;1.37;;
5137;SDS011;53959;53.626;11.410;2023-04-01T23:30:01;4.53;;;1.40;;
5137;SDS011;53959;53.626;11.410;2023-04-01T23:32:28;2.80;;;1.53;;
5137;SDS011;53959;53.626;11.410;2023-04-01T23:34:55;2.13;;;1.17;;
5137;SDS011;53959;53.626;11.410;2023-04-01T23:37:25;3.93;;;1.47;;
5137;SDS011;53959;53.626;11.410;2023-04-01T23:39:54;2.90;;;1.23;;
5137;SDS011;53959;53.626;11.410;2023-04-01T23:42:23;12.83;;;2.20;;
5137;SDS011;53959;53.626;11.410;2023-04-01T23:44:53;4.60;;;1.53;;
5137;SDS011;53959;53.626;11.410;2023-04-01T23:47:22;4.43;;;1.43;;
5137;SDS011;53959;53.626;11.410;2023-04-01T23:49:51;1.73;;;1.10;;
5137;SDS011;53959;53.626;11.410;2023-04-01T23:52:24;2.80;;;1.20;;
5137;SDS011;53959;53.626;11.410;2023-04-01T23:54:55;5.27;;;1.37;;
5137;SDS011;53959;53.626;11.410;2023-04-01T23:57:27;6.43;;;1.37;;
5137;SDS011;53959;53.626;11.410;2023-04-01T23:59:59;1.90;;;1.27;;
